Latest Weather Observations for Young

IDN60801

Issued at 4:04 pm EDT Thursday 28 January 2021 (issued every 10 minutes, with the page automatically refreshed every 10 minutes)

About weather observations | Map of weather stations | Latest weather observations for NSW | Other Formats
Station Details ID: 073138 Name: YOUNG AIRPORT Lat: -34.25 Lon: 148.25 Height: 379.6 m
Data from the previous 72 hours. | See also: Recent months at Young
Date/Time
EDT
Temp
°C
App
Temp
°C
Dew
Point
°C
Rel
Hum
%
Delta-T
°C
Wind Press
QNH
hPa
Press
MSL
hPa
Rain since
9am
mm
Dir  Spd
km/h
Gust
km/h
Spd
kts
Gust
kts
28/04:00pm 16.1 12.9 15.3 95 0.5 SSE 26 35 14 19 1019.1 1017.2 7.8
28/03:30pm 17.4 13.8 14.3 82 1.8 SE 26 37 14 20 1018.8 1016.9 5.4
28/03:00pm 17.8 14.1 13.9 78 2.3 SE 26 41 14 22 1019.0 1017.1 5.4
28/02:30pm 17.9 14.3 14.2 79 2.2 SSE 26 39 14 21 1019.4 1017.5 5.4
28/02:00pm 18.2 14.6 14.1 77 2.4 SE 26 37 14 20 1019.1 1017.2 5.4
28/01:30pm 18.7 15.2 14.4 76 2.5 SE 26 39 14 21 1019.1 1017.2 5.4
28/01:00pm 18.9 15.9 14.8 77 2.4 SE 24 39 13 21 1018.9 1017.0 5.4
28/12:30pm 19.2 15.8 14.7 75 2.7 ESE 26 43 14 23 1018.2 1016.3 5.4
28/12:00pm 18.9 17.0 15.8 82 1.9 ESE 20 35 11 19 1018.3 1016.4 5.4
28/11:30am 18.1 15.5 15.0 82 1.8 ESE 22 37 12 20 1018.4 1016.5 5.4
28/11:00am 19.2 16.9 14.7 75 2.7 ESE 20 35 11 19 1018.2 1016.3 5.2
28/10:30am 18.9 16.6 15.8 82 1.9 SSE 22 32 12 17 1017.8 1015.8 5.2
28/10:18am 18.3 17.5 16.1 87 1.3 SE 15 28 8 15 1017.9 1015.9 5.2
28/10:07am 17.3 13.8 15.5 89 1.1 E 28 46 15 25 1017.2 1015.3 5.2
28/10:00am 17.0 13.3 15.0 88 1.2 E 28 44 15 24 1016.8 1014.9 4.2
28/09:58am 17.2 13.5 15.0 87 1.3 E 28 43 15 23 1017.0 1015.1 3.0
28/09:38am 20.0 15.3 13.2 65 3.9 E 30 50 16 27 1018.1 1016.1 0.0
28/09:30am 20.3 16.6 12.8 62 4.3 ESE 24 39 13 21 1018.2 1016.3 0.0
28/09:01am 21.2 16.9 13.1 60 4.7 ESE 28 46 15 25 1017.6 1015.6 0.0
28/09:00am 21.2 16.8 12.9 59 4.8 ESE 28 41 15 22 1017.7 1015.7 0.0
28/08:47am 20.2 15.7 12.7 62 4.3 ESE 28 50 15 27 1017.8 1015.8 0.0
28/08:30am 20.3 16.7 13.0 63 4.2 ESE 24 41 13 22 1017.6 1015.6 0.0
28/08:00am 19.0 15.4 13.0 68 3.4 ESE 24 39 13 21 1017.5 1015.5 0.0
28/07:30am 18.2 14.5 12.6 70 3.2 SE 24 39 13 21 1017.0 1015.1 0.0
28/07:00am 18.0 13.6 12.9 72 2.9 ESE 28 44 15 24 1016.4 1014.5 0.0
28/06:30am 18.0 14.2 13.5 75 2.6 ESE 26 43 14 23 1016.3 1014.4 0.0
28/06:00am 18.1 14.2 13.4 74 2.7 ESE 26 39 14 21 1015.7 1013.7 0.0
28/05:30am 17.9 14.0 13.2 74 2.7 SE 26 43 14 23 1015.6 1013.6 0.0
28/05:00am 17.9 14.3 13.2 74 2.7 SE 24 35 13 19 1015.4 1013.4 0.0
28/04:30am 18.0 13.7 13.3 74 2.7 ESE 28 43 15 23 1014.9 1012.9 0.0
28/04:00am 18.1 15.0 13.4 74 2.7 ESE 22 39 12 21 1015.0 1013.0 0.0
28/03:30am 18.3 15.3 13.8 75 2.6 ESE 22 33 12 18 1015.2 1013.2 0.0
28/03:00am 18.5 16.2 14.0 75 2.6 ESE 19 30 10 16 1015.4 1013.4 0.0
28/02:30am 18.7 16.4 14.0 74 2.7 ESE 19 26 10 14 1015.4 1013.4 0.0
28/02:00am 18.7 15.8 14.0 74 2.7 ESE 22 33 12 18 1015.3 1013.3 0.0
28/01:30am 18.4 15.5 13.9 75 2.6 ESE 22 35 12 19 1015.2 1013.2 0.0
28/01:00am 18.3 15.4 14.0 76 2.5 ESE 22 39 12 21 1015.5 1013.5 0.0
28/12:30am 18.1 15.2 14.0 77 2.4 ESE 22 35 12 19 1015.6 1013.6 0.0
28/12:00am 18.0 14.7 13.9 77 2.4 SE 24 41 13 22 1015.6 1013.6 0.0
 
Date/Time
EDT
Temp
°C
App
Temp
°C
Dew
Point
°C
Rel
Hum
%
Delta-T
°C
Wind Press
QNH
hPa
Press
MSL
hPa
Rain since
9am
mm
Dir  Spd
km/h
Gust
km/h
Spd
kts
Gust
kts
27/11:30pm 18.0 15.4 13.9 77 2.4 ESE 20 35 11 19 1015.7 1013.7 0.0
27/11:00pm 18.1 15.5 13.8 76 2.5 ESE 20 32 11 17 1015.7 1013.7 0.0
27/10:30pm 18.1 14.7 13.6 75 2.6 ESE 24 35 13 19 1015.7 1013.7 0.0
27/10:00pm 18.2 14.7 13.3 73 2.8 SE 24 35 13 19 1015.4 1013.4 0.0
27/09:30pm 18.4 14.8 13.1 71 3.0 ESE 24 46 13 25 1015.1 1013.1 0.0
27/09:00pm 18.8 14.8 13.0 69 3.3 ESE 26 43 14 23 1014.2 1012.3 0.0
27/08:53pm 19.1 14.8 13.1 68 3.5 SE 28 54 15 29 1014.1 1012.2 0.0
27/08:30pm 19.2 14.7 12.7 66 3.7 ESE 28 43 15 23 1013.9 1012.0 0.0
27/08:00pm 19.4 15.3 12.7 65 3.8 SE 26 41 14 22 1013.8 1011.9 0.0
27/07:34pm 20.4 16.0 12.9 62 4.3 SE 28 46 15 25 1013.5 1011.6 0.0
27/07:30pm 20.7 15.9 12.9 61 4.5 SE 30 43 16 23 1013.5 1011.6 0.0
27/07:00pm 21.8 17.9 13.4 59 4.9 SE 26 48 14 26 1013.1 1011.1 0.0
27/06:36pm 23.0 19.1 14.3 58 5.2 ESE 28 46 15 25 1012.5 1010.5 0.0
27/06:30pm 22.5 17.4 13.8 58 5.1 SE 33 46 18 25 1012.5 1010.5 0.0
27/06:16pm 23.5 19.1 14.2 56 5.6 SE 30 50 16 27 1012.2 1010.2 0.0
27/06:00pm 24.4 20.1 14.5 54 6.0 ESE 30 46 16 25 1011.8 1009.9 0.0
27/05:52pm 24.4 20.4 14.2 53 6.1 SE 28 46 15 25 1011.8 1009.9 0.0
27/05:30pm 25.3 21.6 15.0 53 6.3 ESE 28 39 15 21 1011.7 1009.8 0.0
27/05:02pm 26.1 22.7 15.8 53 6.4 ESE 28 46 15 25 1011.5 1009.6 0.0
27/05:00pm 25.7 21.4 15.4 53 6.3 ESE 32 46 17 25 1011.6 1009.7 0.0
27/04:30pm 26.0 21.8 15.7 53 6.4 SE 32 43 17 23 1011.6 1009.7 0.0
27/04:00pm 26.2 22.3 15.6 52 6.6 ESE 30 46 16 25 1011.4 1009.5 0.0
27/03:30pm 26.8 23.5 16.1 52 6.7 SE 28 46 15 25 1011.4 1009.5 0.0
27/03:22pm 26.9 23.7 16.2 52 6.7 SE 28 46 15 25 1011.4 1009.5 0.0
27/03:00pm 27.0 23.4 16.3 52 6.7 SE 30 43 16 23 1011.4 1009.5 0.0
27/02:30pm 28.1 25.9 17.0 51 7.1 SE 24 35 13 19 1011.4 1009.5 0.0
27/02:00pm 27.2 24.7 17.1 54 6.4 SE 26 41 14 22 1011.4 1009.5 0.0
27/01:30pm 26.9 24.8 17.1 55 6.2 SE 24 37 13 20 1011.3 1009.4 0.0
27/01:00pm 26.1 24.4 17.2 58 5.6 SE 22 33 12 18 1011.4 1009.5 0.0
27/12:30pm 24.5 22.7 17.0 63 4.7 ESE 22 35 12 19 1011.5 1009.6 0.0
27/12:00pm 23.8 22.1 17.1 66 4.2 SE 22 32 12 17 1011.4 1009.5 0.0
27/11:30am 23.4 20.4 16.9 67 4.1 SSE 28 35 15 19 1011.3 1009.4 0.0
27/11:00am 22.4 20.3 17.1 72 3.3 SSE 24 32 13 17 1011.2 1009.3 0.0
27/10:30am 22.1 21.0 17.7 76 2.8 SSE 20 30 11 16 1011.1 1009.2 0.0
27/10:00am 21.9 21.1 18.5 81 2.2 SSE 20 30 11 16 1010.9 1008.9 0.0
27/09:40am 22.1 21.9 19.3 84 1.8 SE 19 24 10 13 1010.5 1008.5 0.0
27/09:30am 22.1 21.8 19.6 86 1.6 SSE 20 30 11 16 1010.4 1008.4 0.0
27/09:07am 22.6 22.9 20.7 89 1.3 SSE 20 30 11 16 1010.2 1008.2 0.0
27/09:00am 22.7 23.4 21.2 91 1.0 SSE 19 28 10 15 1010.1 1008.1 1.8
27/08:30am 22.7 24.1 21.9 95 0.5 SSE 17 24 9 13 1009.6 1007.6 1.8
27/08:00am 22.2 24.0 21.9 98 0.2 S 15 19 8 10 1009.2 1007.2 1.8
27/07:30am 22.0 25.0 22.0 100 0.0 SSW 9 13 5 7 1008.8 1006.9 1.8
27/07:00am 21.7 24.6 21.7 100 0.0 S 9 13 5 7 1008.4 1006.4 1.8
27/06:30am 21.2 24.2 21.2 100 0.0 S 7 7 4 4 1008.0 1006.0 1.8
27/06:00am 21.4 25.8 21.4 100 0.0 CALM 0 0 0 0 1007.7 1005.7 1.8
27/05:30am 21.3 25.7 21.3 100 0.0 CALM 0 0 0 0 1007.1 1005.1 1.8
27/05:00am 21.3 25.7 21.3 100 0.0 CALM 0 0 0 0 1006.7 1004.7 1.8
27/04:30am 21.4 24.7 21.4 100 0.0 SW 6 7 3 4 1006.5 1004.5 1.8
27/04:00am 21.5 24.5 21.3 99 0.1 SSW 7 7 4 4 1006.4 1004.3 1.8
27/03:30am 21.6 25.6 21.4 99 0.1 SSW 2 9 1 5 1006.4 1004.3 1.8
27/03:00am 21.6 26.0 21.3 98 0.2 CALM 0 4 0 2 1006.2 1004.2 1.8
27/02:30am 21.5 24.6 21.5 100 0.0 SSW 7 9 4 5 1006.2 1004.2 1.8
27/02:00am 21.5 25.6 21.5 100 0.0 S 2 7 1 4 1006.2 1004.2 1.8
27/01:30am 21.4 24.5 21.4 100 0.0 SSE 7 9 4 5 1006.5 1004.5 1.8
27/01:00am 21.6 24.7 21.4 99 0.1 SSW 7 9 4 5 1006.8 1004.8 1.8
27/12:30am 21.7 24.6 21.0 96 0.5 SSW 7 13 4 7 1006.8 1004.8 1.6
27/12:00am 21.7 24.9 21.7 100 0.0 SSW 7 9 4 5 1006.5 1004.5 1.6
 
Date/Time
EDT
Temp
°C
App
Temp
°C
Dew
Point
°C
Rel
Hum
%
Delta-T
°C
Wind Press
QNH
hPa
Press
MSL
hPa
Rain since
9am
mm
Dir  Spd
km/h
Gust
km/h
Spd
kts
Gust
kts
26/11:30pm 21.5 24.3 21.5 100 0.0 S 9 11 5 6 1006.4 1004.3 1.6
26/11:00pm 21.5 24.2 21.3 99 0.1 SSW 9 11 5 6 1006.6 1004.6 1.6
26/10:30pm 21.4 23.9 21.1 98 0.2 SSE 9 11 5 6 1006.7 1004.7 1.6
26/10:00pm 21.8 24.2 21.6 99 0.1 S 11 11 6 6 1006.6 1004.6 1.6
26/09:30pm 21.8 23.7 21.3 97 0.3 SSW 13 15 7 8 1006.2 1004.2 1.6
26/09:00pm 22.3 25.9 22.3 100 0.0 SW 7 9 4 5 1005.9 1003.9 1.6
26/08:30pm 22.2 25.3 21.5 96 0.5 SE 7 11 4 6 1005.4 1003.4 1.6
26/08:00pm 23.1 25.2 20.2 84 1.9 SSW 9 11 5 6 1005.2 1003.2 1.4
26/07:30pm 24.2 26.5 19.9 77 2.8 SSE 7 9 4 5 1004.7 1002.7 1.2
26/07:00pm 24.9 27.6 19.5 72 3.5 ENE 4 6 2 3 1004.2 1002.2 1.2
26/06:30pm 24.9 27.1 19.1 70 3.8 NNE 6 9 3 5 1003.9 1001.8 1.2
26/06:00pm 24.9 27.1 19.5 72 3.5 E 7 9 4 5 1003.8 1001.7 1.2
26/05:30pm 24.5 26.6 20.2 77 2.8 S 9 13 5 7 1004.0 1001.9 1.2
26/05:00pm 23.6 25.8 20.5 83 2.1 S 9 11 5 6 1004.1 1002.0 1.2
26/04:30pm 23.1 25.1 20.8 87 1.5 SW 11 15 6 8 1004.4 1002.4 1.0
26/04:00pm 24.4 25.4 19.5 74 3.2 WNW 13 19 7 10 1004.3 1002.3 0.6
26/03:30pm 24.9 25.4 18.4 67 4.2 W 13 22 7 12 1004.1 1002.0 0.2
26/03:00pm 29.3 27.7 15.1 42 8.8 W 17 28 9 15 1003.5 1001.5 0.0
26/02:30pm 29.8 28.1 14.7 39 9.3 W 17 26 9 14 1003.1 1001.1 0.0
26/02:00pm 31.3 28.2 14.4 35 10.5 WSW 24 32 13 17 1002.9 1000.9 0.0
26/01:30pm 33.4 31.7 13.5 30 12.2 W 15 30 8 16 1002.7 1000.7 0.0
26/01:00pm 32.4 29.4 12.6 30 12.0 NNW 20 35 11 19 1003.0 1001.0 0.0
26/12:30pm 31.9 29.1 13.2 32 11.4 N 20 32 11 17 1003.3 1001.3 0.0
26/12:00pm 30.6 28.5 12.5 33 10.9 NNW 15 22 8 12 1003.5 1001.5 0.0
26/11:30am 29.7 28.3 12.2 34 10.4 WNW 11 17 6 9 1003.7 1001.6 0.0
26/11:00am 29.4 27.1 11.9 34 10.4 NW 15 22 8 12 1004.0 1001.9 0.0
26/10:30am 29.9 26.9 11.9 33 10.7 NW 19 30 10 16 1004.3 1002.3 0.0
26/10:00am 30.0 27.1 12.9 35 10.3 NNW 20 30 11 16 1004.5 1002.5 0.0
26/09:30am 28.3 24.7 11.8 36 9.7 NNW 22 32 12 17 1004.5 1002.5 0.0
26/09:00am 27.2 24.1 11.7 38 9.1 NNW 19 35 10 19 1004.5 1002.5 0.0
26/08:30am 27.1 23.2 12.0 39 8.8 NNW 24 37 13 20 1004.4 1002.4 0.0
26/08:00am 26.2 22.8 11.2 39 8.7 NNW 20 32 11 17 1004.2 1002.2 0.0
26/07:30am 25.9 22.4 10.9 39 8.6 NNW 20 32 11 17 1004.3 1002.3 0.0
26/07:00am 25.5 23.1 11.3 41 8.2 NNW 15 20 8 11 1003.8 1001.7 0.0
26/06:30am 24.7 22.0 11.6 44 7.5 NNW 17 24 9 13 1003.7 1001.6 0.0
26/06:12am 21.5 20.2 13.7 61 4.6 N 13 22 7 12 1003.5 1001.5 0.0
26/06:00am 16.3 15.5 11.2 72 2.8 WNW 6 13 3 7 1003.5 1001.5 0.0
26/05:30am 15.4 14.4 11.0 75 2.4 SSW 7 9 4 5 1002.9 1000.9 0.0
26/05:00am 15.0 14.8 10.6 75 2.4 SSW 2 6 1 3 1002.7 1000.7 0.0
26/04:30am 15.5 15.7 10.7 73 2.6 CALM 0 0 0 0 1002.6 1000.6 0.0
26/04:00am 15.9 15.7 10.4 70 3.0 WSW 2 7 1 4 1002.6 1000.6 0.0
26/03:30am 16.8 17.0 10.6 67 3.4 CALM 0 0 0 0 1002.8 1000.8 0.0
26/03:00am 16.9 17.0 10.3 65 3.6 CALM 0 0 0 0 1003.2 1001.2 0.0
26/02:30am 17.4 17.2 10.3 63 3.8 S 2 7 1 4 1003.7 1001.6 0.0
26/02:00am 18.0 17.8 10.6 62 4.1 SSW 2 6 1 3 1003.8 1001.7 0.0
26/01:30am 18.8 18.5 10.1 57 4.7 NW 2 7 1 4 1003.9 1001.8 0.0
26/01:00am 20.7 20.7 9.9 50 5.9 CALM 0 0 0 0 1004.0 1001.9 0.0
26/12:30am 23.0 21.9 10.1 44 7.2 N 6 9 3 5 1004.1 1002.0 0.0
26/12:00am 23.6 22.5 9.9 42 7.6 N 6 7 3 4 1004.3 1002.3 0.0
 
Date/Time
EDT
Temp
°C
App
Temp
°C
Dew
Point
°C
Rel
Hum
%
Delta-T
°C
Wind Press
QNH
hPa
Press
MSL
hPa
Rain since
9am
mm
Dir  Spd
km/h
Gust
km/h
Spd
kts
Gust
kts
25/11:30pm 23.4 23.5 10.1 43 7.4 CALM 0 0 0 0 1004.4 1002.4 0.0
25/11:00pm 24.1 22.9 9.7 40 8.0 N 6 7 3 4 1004.5 1002.5 0.0
25/10:30pm 26.5 24.8 8.5 32 9.9 N 7 7 4 4 1004.4 1002.4 0.0
25/10:00pm 27.1 25.1 8.5 31 10.3 N 9 11 5 6 1004.2 1002.2 0.0
25/09:30pm 29.5 27.0 8.0 26 11.9 N 11 15 6 8 1004.0 1001.9 0.0
25/09:00pm 31.2 28.2 7.6 23 13.2 NNW 13 22 7 12 1003.7 1001.6 0.0
25/08:30pm 32.2 29.1 7.1 21 13.9 NNW 13 22 7 12 1003.4 1001.4 0.0
25/08:00pm 33.7 29.4 6.9 19 15.0 NNW 19 28 10 15 1003.2 1001.2 0.0
25/07:30pm 34.5 29.2 6.7 18 15.5 NNW 24 35 13 19 1003.1 1001.1 0.0
25/07:00pm 34.8 30.7 7.8 19 15.4 N 19 32 10 17 1003.1 1001.1 0.0
25/06:30pm 36.0 31.1 7.1 17 16.3 N 22 32 12 17 1002.9 1000.9 0.0
25/06:00pm 35.3 30.1 7.4 18 15.8 N 24 35 13 19 1003.0 1001.0 0.0
25/05:30pm 36.5 32.5 6.6 16 16.8 NNW 17 35 9 19 1003.3 1001.3 0.0
25/05:00pm 36.7 33.1 8.5 18 16.4 N 17 33 9 18 1003.8 1001.7 0.0
25/04:30pm 36.5 32.7 9.2 19 15.9 NNW 19 30 10 16 1004.2 1002.2 0.0

Other formats

Comma delimited format used in spreadsheet applications
http://www.bom.gov.au/fwo/IDN60801/IDN60801.94712.axf

JavaScript Object Notation format (JSON) in row-major order
http://www.bom.gov.au/fwo/IDN60801/IDN60801.94712.json

Data quality

Most of these data are generated automatically and are frequently updated. Quality checks on data are not normally performed. It is possible for incorrect values to appear. Refer to information at About Latest Weather Observations and please check the disclaimer before using these data.